Time;durP1;ratioP1;P1;durP2;ratioP2;P2;SDS_P1;SDS_P2;PMS_P1;PMS_P2;Temp;Humidity;BMP_temperature;BMP_pressure;BME280_temperature;BME280_humidity;BME280_pressure;Samples;Min_cycle;Max_cycle;Signal;HPM_P1;HPM_P2
2023/07/29 00:01:09;;;;;;;10.50;8.00;;;20.70;99.90;;;;;;5042627;28;20021;-91
2023/07/29 00:03:34;;;;;;;9.70;7.45;;;20.60;99.90;;;;;;5045448;28;20032;-91
2023/07/29 00:06:00;;;;;;;10.30;8.15;;;20.60;99.90;;;;;;5044969;28;20044;-92
2023/07/29 00:08:26;;;;;;;10.77;8.38;;;20.60;99.90;;;;;;5046397;28;20055;-92
2023/07/29 00:10:52;;;;;;;12.18;7.50;;;20.60;99.90;;;;;;5061215;28;20032;-91
2023/07/29 00:13:18;;;;;;;11.55;7.80;;;20.50;99.90;;;;;;5043475;28;20116;-93
2023/07/29 00:15:43;;;;;;;9.27;7.05;;;20.50;99.90;;;;;;5043681;28;20051;-93
2023/07/29 00:18:10;;;;;;;12.43;8.60;;;20.50;99.90;;;;;;5043197;28;20442;-91
2023/07/29 00:20:36;;;;;;;11.60;6.97;;;20.40;99.90;;;;;;5042594;28;20038;-90
2023/07/29 00:23:02;;;;;;;9.07;6.15;;;20.40;99.90;;;;;;5042300;28;20124;-91
2023/07/29 00:25:43;;;;;;;11.23;6.15;;;20.30;99.90;;;;;;5041814;28;20024;-90
2023/07/29 00:28:09;;;;;;;7.93;5.75;;;20.30;99.90;;;;;;5042721;28;20024;-91
2023/07/29 00:30:35;;;;;;;8.40;6.30;;;20.30;99.90;;;;;;5042355;28;20036;-92
2023/07/29 00:33:00;;;;;;;13.73;8.10;;;20.20;99.90;;;;;;5042393;28;20028;-91
2023/07/29 00:35:26;;;;;;;11.18;8.00;;;20.20;99.90;;;;;;5042082;28;20087;-89
2023/07/29 00:37:52;;;;;;;11.35;7.65;;;20.20;99.90;;;;;;5042670;28;20485;-89
2023/07/29 00:40:22;;;;;;;11.52;7.10;;;20.20;99.90;;;;;;5041576;28;20024;-90
2023/07/29 00:42:49;;;;;;;9.73;6.57;;;20.10;99.90;;;;;;5058450;28;20024;-89
2023/07/29 00:45:14;;;;;;;9.15;5.88;;;20.10;99.90;;;;;;5058052;28;20292;-89
2023/07/29 00:47:42;;;;;;;6.40;5.35;;;20.10;99.90;;;;;;5042258;28;20021;-91
2023/07/29 00:50:12;;;;;;;8.77;6.05;;;20.10;99.90;;;;;;5054401;28;20029;-92
2023/07/29 00:52:38;;;;;;;11.10;6.75;;;20.00;99.90;;;;;;5051571;28;20029;-92
2023/07/29 00:55:05;;;;;;;8.18;6.32;;;20.00;99.90;;;;;;5058938;28;20025;-92
2023/07/29 00:57:32;;;;;;;10.57;7.03;;;20.00;99.90;;;;;;5026182;28;20094;-91
2023/07/29 00:59:58;;;;;;;8.23;6.05;;;19.90;99.90;;;;;;5058806;28;20073;-92
2023/07/29 01:02:24;;;;;;;11.52;5.97;;;19.90;99.90;;;;;;5042468;28;20104;-92
2023/07/29 01:04:55;;;;;;;6.65;4.40;;;19.90;99.90;;;;;;5042877;28;20048;-92
2023/07/29 01:07:39;;;;;;;9.45;6.22;;;19.80;99.90;;;;;;5042414;28;20025;-92
2023/07/29 01:10:27;;;;;;;10.32;7.45;;;19.80;99.90;;;;;;5058371;28;20052;-91
2023/07/29 01:13:12;;;;;;;9.38;7.30;;;19.70;99.90;;;;;;5058935;28;20072;-91
2023/07/29 01:15:54;;;;;;;12.40;9.02;;;19.70;99.90;;;;;;5058469;28;20048;-92
2023/07/29 01:18:29;;;;;;;13.75;8.77;;;19.70;99.90;;;;;;5058372;28;20020;-92
2023/07/29 01:21:02;;;;;;;11.48;8.23;;;19.70;99.90;;;;;;5059028;28;20017;-92
2023/07/29 01:23:32;;;;;;;10.88;7.70;;;19.70;99.90;;;;;;5058534;28;20046;-92
2023/07/29 01:25:58;;;;;;;10.88;8.90;;;19.70;99.90;;;;;;5042383;28;20461;-92
2023/07/29 01:28:25;;;;;;;12.52;8.98;;;19.70;99.90;;;;;;5058109;28;20046;-92
2023/07/29 01:30:57;;;;;;;15.98;9.90;;;19.70;99.90;;;;;;5058577;28;20028;-91
2023/07/29 01:33:30;;;;;;;10.68;8.57;;;19.80;99.90;;;;;;5043655;28;20035;-91
2023/07/29 01:36:02;;;;;;;13.55;9.35;;;19.80;99.90;;;;;;5059722;28;20028;-91
2023/07/29 01:38:34;;;;;;;13.52;9.35;;;19.80;99.90;;;;;;5059514;28;20021;-91
2023/07/29 01:41:06;;;;;;;12.93;9.93;;;19.80;99.90;;;;;;5059640;28;20036;-91
2023/07/29 01:43:32;;;;;;;13.60;8.95;;;19.90;99.90;;;;;;5041357;28;20111;-91
2023/07/29 01:45:58;;;;;;;13.25;9.70;;;19.80;99.90;;;;;;5057685;28;20067;-91
2023/07/29 01:48:24;;;;;;;12.45;9.38;;;19.80;99.90;;;;;;5041500;28;20029;-91
2023/07/29 01:50:50;;;;;;;12.70;9.32;;;19.90;99.90;;;;;;5057580;28;20116;-91
2023/07/29 01:53:15;;;;;;;12.20;8.45;;;19.90;99.90;;;;;;5057811;28;20044;-93
2023/07/29 01:55:42;;;;;;;15.40;9.88;;;19.90;99.90;;;;;;5058023;28;20458;-92
2023/07/29 01:58:08;;;;;;;15.63;10.50;;;19.90;99.90;;;;;;5041649;28;20063;-91
2023/07/29 02:00:34;;;;;;;17.25;10.48;;;19.90;99.90;;;;;;5058212;28;20488;-91
2023/07/29 02:02:59;;;;;;;14.52;11.40;;;19.90;99.90;;;;;;5058090;28;20028;-91
2023/07/29 02:05:25;;;;;;;16.80;10.90;;;19.90;99.90;;;;;;5032293;28;20520;-92
2023/07/29 02:07:51;;;;;;;13.73;10.75;;;19.90;99.90;;;;;;5018224;28;20033;-92
2023/07/29 02:10:17;;;;;;;11.68;9.75;;;19.90;99.90;;;;;;5034156;28;20032;-92
2023/07/29 02:12:44;;;;;;;14.38;10.38;;;19.90;99.90;;;;;;5034112;28;20030;-90
2023/07/29 02:15:16;;;;;;;14.45;10.77;;;19.90;99.90;;;;;;5034380;28;20018;-88
2023/07/29 02:17:51;;;;;;;14.48;11.13;;;19.90;99.90;;;;;;5017533;28;20024;-89
2023/07/29 02:20:19;;;;;;;15.27;11.10;;;19.90;99.90;;;;;;5034851;28;20100;-88
2023/07/29 02:22:51;;;;;;;15.95;12.05;;;19.90;99.90;;;;;;5034615;28;20030;-89
2023/07/29 02:25:20;;;;;;;15.80;10.90;;;19.90;99.90;;;;;;5001203;28;20433;-89
2023/07/29 02:27:49;;;;;;;14.95;10.10;;;20.00;99.90;;;;;;5033799;28;20445;-89
2023/07/29 02:30:15;;;;;;;18.90;10.15;;;20.00;99.90;;;;;;5017091;28;20049;-89
2023/07/29 02:32:42;;;;;;;18.50;12.30;;;19.90;99.90;;;;;;5001324;28;20048;-89
2023/07/29 02:35:08;;;;;;;12.38;10.25;;;19.90;99.90;;;;;;5000790;28;20089;-89
2023/07/29 02:37:34;;;;;;;20.58;12.23;;;19.90;99.90;;;;;;5017082;28;20038;-89
2023/07/29 02:40:00;;;;;;;16.92;12.18;;;19.90;99.90;;;;;;5001125;28;20021;-89
2023/07/29 02:42:26;;;;;;;15.25;12.35;;;19.80;99.90;;;;;;5017226;28;20087;-89
2023/07/29 02:44:51;;;;;;;17.45;13.73;;;19.80;99.90;;;;;;5033804;28;20096;-89
2023/07/29 02:47:17;;;;;;;20.98;14.00;;;19.80;99.90;;;;;;5017394;28;20551;-89
2023/07/29 02:49:43;;;;;;;16.73;11.82;;;19.80;99.90;;;;;;5019619;28;20040;-91
2023/07/29 02:52:08;;;;;;;15.85;11.27;;;19.70;99.90;;;;;;5004485;28;20037;-89
2023/07/29 02:54:34;;;;;;;14.13;11.00;;;19.70;99.90;;;;;;5004579;28;20033;-89
2023/07/29 02:57:00;;;;;;;16.48;10.93;;;19.70;99.90;;;;;;5021152;28;20057;-88
2023/07/29 02:59:26;;;;;;;15.85;10.43;;;19.70;99.90;;;;;;5021040;28;20565;-89
2023/07/29 03:01:53;;;;;;;15.93;10.90;;;19.70;99.90;;;;;;5020632;28;20060;-89
2023/07/29 03:04:19;;;;;;;13.73;10.48;;;19.70;99.90;;;;;;5037216;28;20049;-89
2023/07/29 03:06:44;;;;;;;15.55;10.18;;;19.80;99.90;;;;;;5005165;28;20052;-91
2023/07/29 03:09:10;;;;;;;14.70;9.73;;;19.70;99.90;;;;;;5037314;28;20068;-89
2023/07/29 03:11:36;;;;;;;11.90;8.48;;;19.70;99.90;;;;;;5020822;28;20034;-90
2023/07/29 03:14:02;;;;;;;10.13;7.40;;;19.70;99.90;;;;;;5037147;28;20474;-91
2023/07/29 03:16:27;;;;;;;9.90;7.05;;;19.70;99.90;;;;;;5020590;28;20034;-90
2023/07/29 03:18:53;;;;;;;11.60;6.80;;;19.70;99.90;;;;;;5021498;28;20028;-91
2023/07/29 03:21:19;;;;;;;12.45;6.60;;;19.70;99.90;;;;;;5020984;28;20029;-90
2023/07/29 03:23:44;;;;;;;11.70;6.63;;;19.70;99.90;;;;;;5037568;28;20018;-90
2023/07/29 03:26:10;;;;;;;8.15;5.93;;;19.70;99.90;;;;;;5021016;28;20120;-91
2023/07/29 03:28:38;;;;;;;10.30;5.68;;;19.70;99.90;;;;;;5038023;28;20024;-92
2023/07/29 03:31:03;;;;;;;7.95;5.63;;;19.60;99.90;;;;;;5037640;28;20029;-93
2023/07/29 03:33:35;;;;;;;9.13;5.25;;;19.60;99.90;;;;;;5021256;28;20036;-92
2023/07/29 03:36:05;;;;;;;9.90;5.75;;;19.60;99.90;;;;;;5021207;28;20029;-90
2023/07/29 03:38:32;;;;;;;8.50;4.97;;;19.60;99.90;;;;;;5024481;28;20010;-93
2023/07/29 03:40:58;;;;;;;9.57;5.25;;;19.60;99.90;;;;;;5039757;28;20018;-92
2023/07/29 03:43:24;;;;;;;9.30;5.28;;;19.70;99.90;;;;;;5040379;28;20029;-92
2023/07/29 03:45:50;;;;;;;10.13;4.65;;;19.60;99.90;;;;;;5026173;28;20044;-91
2023/07/29 03:48:15;;;;;;;7.40;4.40;;;19.60;99.90;;;;;;5020914;28;20111;-90
2023/07/29 03:50:41;;;;;;;9.10;4.93;;;19.60;99.90;;;;;;5020104;28;20025;-90
2023/07/29 03:53:09;;;;;;;7.68;4.78;;;19.60;99.90;;;;;;5019659;28;20041;-90
2023/07/29 03:55:35;;;;;;;8.73;4.53;;;19.60;99.90;;;;;;5020330;28;20022;-93
2023/07/29 03:58:01;;;;;;;9.27;5.25;;;19.60;99.90;;;;;;5020248;28;20095;-92
2023/07/29 04:00:27;;;;;;;8.02;4.53;;;19.50;99.90;;;;;;5035363;28;20088;-92
2023/07/29 04:02:53;;;;;;;7.60;4.55;;;19.50;99.90;;;;;;5037053;28;20385;-92
2023/07/29 04:05:19;;;;;;;8.85;4.90;;;19.50;99.90;;;;;;5044852;28;20121;-92
2023/07/29 04:07:45;;;;;;;7.38;4.03;;;19.40;99.90;;;;;;5060227;28;20059;-92
2023/07/29 04:10:11;;;;;;;8.75;3.85;;;19.40;99.90;;;;;;5060559;28;20411;-91
2023/07/29 04:12:37;;;;;;;7.53;4.22;;;19.40;99.90;;;;;;5044001;28;20036;-92
2023/07/29 04:15:03;;;;;;;7.97;4.43;;;19.40;99.90;;;;;;5060221;28;20020;-92
2023/07/29 04:17:29;;;;;;;6.50;3.78;;;19.30;99.90;;;;;;5059656;28;20161;-92
2023/07/29 04:19:55;;;;;;;8.13;3.78;;;19.30;99.90;;;;;;5060105;28;20073;-92
2023/07/29 04:22:20;;;;;;;6.47;3.60;;;19.20;99.90;;;;;;5043499;28;20025;-92
2023/07/29 04:24:46;;;;;;;8.25;3.92;;;19.20;99.90;;;;;;5043267;28;20549;-93
2023/07/29 04:27:12;;;;;;;5.00;3.35;;;19.10;99.90;;;;;;5060033;28;20111;-93
2023/07/29 04:29:38;;;;;;;4.93;3.53;;;19.10;99.90;;;;;;5059669;28;20029;-90
2023/07/29 04:32:04;;;;;;;6.68;3.05;;;19.10;99.90;;;;;;5058829;28;20024;-90
2023/07/29 04:34:30;;;;;;;7.97;3.40;;;19.10;99.90;;;;;;5042524;28;20032;-90
2023/07/29 04:36:56;;;;;;;7.63;3.22;;;19.10;99.90;;;;;;5058692;28;20021;-90
2023/07/29 04:39:21;;;;;;;8.57;3.67;;;19.10;99.90;;;;;;5042036;28;20028;-90
2023/07/29 04:41:47;;;;;;;5.25;3.03;;;19.10;99.90;;;;;;5042256;28;20025;-90
2023/07/29 04:44:13;;;;;;;4.63;3.03;;;19.10;99.90;;;;;;5058976;28;20418;-91
2023/07/29 04:46:38;;;;;;;6.75;3.20;;;19.10;99.90;;;;;;5042212;28;20036;-90
2023/07/29 04:49:04;;;;;;;4.97;3.00;;;19.10;99.90;;;;;;5041978;28;20059;-90
2023/07/29 04:51:31;;;;;;;5.88;3.33;;;19.10;99.90;;;;;;5042329;28;20083;-90
2023/07/29 04:53:57;;;;;;;5.15;3.15;;;19.00;99.90;;;;;;5058574;28;20039;-90
2023/07/29 04:56:23;;;;;;;6.43;3.20;;;19.00;99.90;;;;;;5041550;28;20025;-90
2023/07/29 04:58:49;;;;;;;8.25;3.55;;;19.00;99.90;;;;;;5057828;28;20023;-89
2023/07/29 05:01:14;;;;;;;4.75;3.03;;;18.90;99.90;;;;;;5041927;28;20055;-90
2023/07/29 05:03:40;;;;;;;6.28;2.95;;;18.90;99.90;;;;;;5043472;28;20025;-92
2023/07/29 05:06:06;;;;;;;5.22;2.58;;;18.80;99.90;;;;;;5042971;28;20399;-91
2023/07/29 05:08:31;;;;;;;6.55;3.20;;;18.80;99.90;;;;;;5043063;28;20519;-92
2023/07/29 05:10:57;;;;;;;6.10;2.90;;;18.70;99.90;;;;;;5042601;28;20055;-93
2023/07/29 05:13:23;;;;;;;5.60;2.88;;;18.70;99.90;;;;;;5041606;28;20063;-92
2023/07/29 05:15:49;;;;;;;4.85;3.00;;;18.70;99.90;;;;;;5042261;28;20050;-92
2023/07/29 05:18:16;;;;;;;5.50;3.05;;;18.80;99.90;;;;;;5059051;28;20020;-91
2023/07/29 05:20:42;;;;;;;5.05;2.95;;;18.70;99.90;;;;;;5042087;28;20020;-92
2023/07/29 05:23:08;;;;;;;6.18;3.15;;;18.80;99.90;;;;;;5059195;28;20025;-91
2023/07/29 05:25:34;;;;;;;5.88;3.58;;;18.70;99.90;;;;;;5076596;28;20055;-91
2023/07/29 05:28:01;;;;;;;5.50;3.17;;;18.70;99.90;;;;;;5059467;28;20118;-91
2023/07/29 05:30:30;;;;;;;7.93;3.22;;;18.70;99.90;;;;;;5058863;28;20054;-92
2023/07/29 05:33:07;;;;;;;7.22;3.50;;;18.70;99.90;;;;;;5042618;28;20028;-92
2023/07/29 05:35:33;;;;;;;5.93;3.58;;;18.60;99.90;;;;;;5044444;28;20050;-92
2023/07/29 05:37:59;;;;;;;7.55;3.78;;;18.60;99.90;;;;;;5058753;28;20529;-92
2023/07/29 05:40:24;;;;;;;7.30;3.90;;;18.60;99.90;;;;;;5041063;28;20025;-90
2023/07/29 05:42:50;;;;;;;5.53;3.70;;;18.60;99.90;;;;;;5057485;28;20067;-90
2023/07/29 05:45:16;;;;;;;8.05;4.28;;;18.60;99.90;;;;;;5040683;28;20037;-90
2023/07/29 05:47:41;;;;;;;9.70;4.75;;;18.60;99.90;;;;;;5057999;28;20021;-89
2023/07/29 05:50:08;;;;;;;11.05;4.50;;;18.60;99.90;;;;;;5057192;28;20063;-90
2023/07/29 05:52:33;;;;;;;11.05;4.70;;;18.70;99.90;;;;;;5041749;28;20037;-91
2023/07/29 05:54:59;;;;;;;5.50;3.80;;;18.60;99.90;;;;;;5059188;28;20113;-91
2023/07/29 05:57:25;;;;;;;8.15;4.97;;;18.70;99.90;;;;;;5057895;28;20442;-92
2023/07/29 05:59:51;;;;;;;7.57;4.70;;;18.60;99.90;;;;;;5041416;28;20158;-92
2023/07/29 06:02:17;;;;;;;8.02;4.60;;;18.60;99.90;;;;;;5057945;28;20024;-93
2023/07/29 06:04:42;;;;;;;6.55;4.55;;;18.70;99.90;;;;;;5057558;28;20038;-92
2023/07/29 06:07:08;;;;;;;9.82;4.43;;;18.70;99.90;;;;;;5042073;28;20086;-92
2023/07/29 06:09:34;;;;;;;7.30;4.38;;;18.70;99.90;;;;;;5057967;28;20028;-90
2023/07/29 06:11:59;;;;;;;7.50;4.68;;;18.70;99.90;;;;;;5040635;28;20037;-91
2023/07/29 06:14:25;;;;;;;7.53;4.65;;;18.70;99.90;;;;;;5042540;28;20024;-91
2023/07/29 06:16:51;;;;;;;10.90;5.20;;;18.70;99.90;;;;;;5053354;28;20021;-91
2023/07/29 06:19:19;;;;;;;8.63;5.13;;;18.70;99.90;;;;;;5054021;28;20031;-91
2023/07/29 06:21:45;;;;;;;9.52;5.32;;;18.70;99.90;;;;;;5052870;28;20048;-91
2023/07/29 06:24:11;;;;;;;9.35;5.03;;;18.70;99.90;;;;;;5051469;28;20116;-91
2023/07/29 06:26:40;;;;;;;8.43;4.90;;;18.80;99.90;;;;;;5044092;28;20028;-92
2023/07/29 06:29:05;;;;;;;8.23;5.57;;;18.90;99.90;;;;;;5043599;28;20025;-92
2023/07/29 06:31:32;;;;;;;8.98;5.38;;;18.90;99.90;;;;;;5059111;28;20123;-91
2023/07/29 06:33:58;;;;;;;7.68;5.10;;;18.90;99.90;;;;;;5042328;28;20025;-90
2023/07/29 06:36:24;;;;;;;11.18;6.10;;;19.00;99.90;;;;;;5045079;28;20036;-91
2023/07/29 06:38:50;;;;;;;7.53;4.93;;;18.90;99.90;;;;;;5058909;28;20021;-90
2023/07/29 06:41:16;;;;;;;7.68;5.18;;;18.90;99.90;;;;;;5058251;28;20021;-92
2023/07/29 06:43:42;;;;;;;7.90;5.18;;;19.00;99.90;;;;;;5057248;28;20033;-91
2023/07/29 06:46:07;;;;;;;12.73;5.13;;;19.00;99.90;;;;;;5057380;28;20112;-93
2023/07/29 06:48:41;;;;;;;14.30;5.68;;;19.00;99.90;;;;;;5057008;28;20151;-93
2023/07/29 06:51:14;;;;;;;8.50;5.72;;;19.00;99.90;;;;;;5041401;28;20029;-92
2023/07/29 06:53:40;;;;;;;7.95;4.63;;;19.00;99.90;;;;;;5057695;28;20111;-93
2023/07/29 06:56:06;;;;;;;10.52;5.25;;;19.00;99.90;;;;;;5040744;28;20070;-93
2023/07/29 06:58:32;;;;;;;7.72;5.43;;;19.10;99.90;;;;;;5040788;28;20017;-93
2023/07/29 07:00:57;;;;;;;10.73;5.35;;;19.10;99.90;;;;;;5041331;28;20071;-93
2023/07/29 07:03:23;;;;;;;8.15;5.03;;;19.20;99.90;;;;;;5040967;28;20040;-93
2023/07/29 07:05:49;;;;;;;8.80;5.43;;;19.20;99.90;;;;;;5057166;28;20032;-93
2023/07/29 07:08:15;;;;;;;13.70;6.10;;;19.30;99.90;;;;;;5040312;28;20028;-92
2023/07/29 07:10:50;;;;;;;10.25;6.30;;;19.30;99.90;;;;;;5057037;28;20082;-91
2023/07/29 07:13:16;;;;;;;9.18;5.90;;;19.30;99.90;;;;;;5042877;28;20040;-92
2023/07/29 07:15:47;;;;;;;9.00;5.78;;;19.30;99.90;;;;;;5056871;28;20015;-89
2023/07/29 07:18:12;;;;;;;11.35;6.65;;;19.30;99.90;;;;;;5057020;28;20029;-89
2023/07/29 07:20:38;;;;;;;10.50;6.65;;;19.40;99.90;;;;;;5056354;28;20028;-89
2023/07/29 07:23:05;;;;;;;9.50;6.68;;;19.40;99.90;;;;;;5056505;28;20029;-88
2023/07/29 07:25:31;;;;;;;10.35;6.85;;;19.50;99.90;;;;;;5056165;28;20468;-92
2023/07/29 07:27:57;;;;;;;12.27;7.30;;;19.50;99.90;;;;;;5074082;28;20024;-91
2023/07/29 07:30:23;;;;;;;11.35;6.65;;;19.50;99.90;;;;;;5056964;28;20119;-91
2023/07/29 07:32:49;;;;;;;9.88;6.75;;;19.60;99.90;;;;;;5057200;28;20043;-90
2023/07/29 07:35:15;;;;;;;9.13;6.43;;;19.60;99.90;;;;;;5059259;28;20036;-93
2023/07/29 07:37:41;;;;;;;8.30;6.47;;;19.60;99.90;;;;;;5061626;28;20047;-92
2023/07/29 07:40:07;;;;;;;10.52;7.35;;;19.60;99.90;;;;;;5061663;28;20031;-92
2023/07/29 07:42:33;;;;;;;9.40;7.05;;;19.70;99.90;;;;;;5061196;28;20040;-92
2023/07/29 07:44:58;;;;;;;9.68;6.28;;;19.70;99.90;;;;;;5060465;28;20025;-90
2023/07/29 07:47:24;;;;;;;11.25;6.65;;;19.80;99.90;;;;;;5060287;28;20070;-89
2023/07/29 07:49:50;;;;;;;8.48;6.38;;;19.80;99.90;;;;;;5060319;28;20035;-92
2023/07/29 07:52:16;;;;;;;10.32;7.10;;;19.80;99.90;;;;;;5060933;28;20025;-91
2023/07/29 07:54:41;;;;;;;8.70;6.32;;;19.80;99.90;;;;;;5060854;28;20032;-92
2023/07/29 07:57:07;;;;;;;8.52;6.43;;;19.90;99.90;;;;;;5061105;28;20021;-91
2023/07/29 07:59:33;;;;;;;12.07;6.60;;;19.90;99.90;;;;;;5060646;28;20039;-92
2023/07/29 08:01:59;;;;;;;8.82;5.60;;;20.00;99.90;;;;;;5061786;28;20017;-92
2023/07/29 08:04:24;;;;;;;10.73;6.45;;;20.00;99.90;;;;;;5060115;28;20027;-90
2023/07/29 08:06:50;;;;;;;10.07;6.25;;;20.10;99.90;;;;;;5060104;28;20140;-91
2023/07/29 08:09:16;;;;;;;6.93;5.60;;;20.10;99.90;;;;;;5060544;28;20023;-91
2023/07/29 08:11:41;;;;;;;6.65;5.25;;;20.00;99.90;;;;;;5060878;28;20416;-93
2023/07/29 08:14:07;;;;;;;6.82;4.93;;;20.00;99.90;;;;;;5060809;28;20020;-91
2023/07/29 08:16:33;;;;;;;8.50;5.38;;;20.00;99.90;;;;;;5060444;28;20048;-92
2023/07/29 08:18:59;;;;;;;6.53;4.47;;;19.90;99.90;;;;;;5060252;28;20420;-92
2023/07/29 08:21:27;;;;;;;7.80;4.72;;;20.00;99.90;;;;;;5060564;28;20474;-91
2023/07/29 08:23:52;;;;;;;7.78;4.40;;;20.00;99.90;;;;;;5077494;28;20055;-92
2023/07/29 08:26:18;;;;;;;6.70;4.55;;;20.00;99.90;;;;;;5062154;28;20420;-94
2023/07/29 08:28:45;;;;;;;6.95;4.97;;;20.10;99.90;;;;;;5060020;28;20032;-91
2023/07/29 08:31:11;;;;;;;5.43;3.95;;;20.10;99.90;;;;;;5058495;28;20090;-89
2023/07/29 08:33:36;;;;;;;8.60;4.43;;;20.20;99.90;;;;;;5058830;28;20434;-89
2023/07/29 08:36:03;;;;;;;8.35;3.80;;;20.20;99.90;;;;;;5064558;28;20029;-89
2023/07/29 08:38:28;;;;;;;7.05;3.92;;;20.30;99.90;;;;;;5070205;28;20468;-92
2023/07/29 08:41:08;;;;;;;6.28;3.55;;;20.20;99.90;;;;;;5059940;28;20039;-91
2023/07/29 08:43:36;;;;;;;8.05;3.78;;;20.20;99.90;;;;;;5060529;28;20033;-93
2023/07/29 08:46:02;;;;;;;6.50;3.88;;;20.30;99.90;;;;;;5060459;28;20033;-91
2023/07/29 08:48:41;;;;;;;5.90;3.90;;;20.20;99.90;;;;;;5059731;28;20020;-90
2023/07/29 08:51:08;;;;;;;5.50;3.60;;;20.20;99.90;;;;;;5060139;28;20066;-91
2023/07/29 08:53:38;;;;;;;9.65;3.72;;;20.20;99.90;;;;;;5059590;28;20028;-91
2023/07/29 08:56:05;;;;;;;6.63;3.05;;;20.30;99.90;;;;;;5058858;28;20020;-89
2023/07/29 08:58:31;;;;;;;7.50;3.38;;;20.30;99.90;;;;;;5058118;28;20115;-89
2023/07/29 09:00:57;;;;;;;5.40;2.90;;;20.40;99.90;;;;;;5057865;28;20047;-90
2023/07/29 09:03:23;;;;;;;6.03;3.40;;;20.50;99.90;;;;;;5058670;28;20465;-88
2023/07/29 09:05:50;;;;;;;7.03;3.17;;;20.50;99.90;;;;;;5058432;28;20048;-90
2023/07/29 09:08:16;;;;;;;8.10;3.13;;;20.50;99.90;;;;;;5058166;28;20040;-89
2023/07/29 09:10:42;;;;;;;4.60;2.70;;;20.60;99.90;;;;;;5058078;28;20090;-89
2023/07/29 09:13:08;;;;;;;4.15;2.45;;;20.60;99.90;;;;;;5075981;28;20032;-90
2023/07/29 09:15:35;;;;;;;4.20;2.63;;;20.60;99.90;;;;;;5057715;28;20473;-89
2023/07/29 09:18:18;;;;;;;3.95;2.50;;;20.60;99.90;;;;;;5057310;28;20029;-89
2023/07/29 09:20:47;;;;;;;4.45;2.50;;;20.60;99.90;;;;;;5060641;28;20021;-92
2023/07/29 09:23:13;;;;;;;8.43;3.33;;;20.70;99.90;;;;;;5075762;28;20024;-92
2023/07/29 09:25:39;;;;;;;4.90;2.50;;;20.70;99.90;;;;;;5060486;28;20081;-91
2023/07/29 09:28:11;;;;;;;3.92;2.40;;;20.70;99.90;;;;;;5059053;28;20050;-91
2023/07/29 09:30:38;;;;;;;9.15;2.47;;;20.80;99.90;;;;;;5059901;28;20024;-94
2023/07/29 09:33:04;;;;;;;6.03;2.63;;;20.80;99.90;;;;;;5059616;28;20032;-94
2023/07/29 09:35:32;;;;;;;3.83;2.15;;;20.80;99.90;;;;;;5059674;28;20027;-94
2023/07/29 09:37:58;;;;;;;5.40;2.28;;;20.80;99.90;;;;;;5060453;28;20073;-93
2023/07/29 09:40:23;;;;;;;5.28;2.63;;;20.90;99.90;;;;;;5059051;28;20021;-93
2023/07/29 09:42:51;;;;;;;3.95;2.42;;;20.90;99.90;;;;;;5058645;28;20036;-93
2023/07/29 09:45:24;;;;;;;5.25;2.50;;;21.00;99.90;;;;;;5058445;28;20111;-92
2023/07/29 09:47:52;;;;;;;4.55;2.63;;;21.00;99.90;;;;;;5058235;28;20120;-94
2023/07/29 09:50:18;;;;;;;7.28;2.92;;;21.00;99.90;;;;;;5057968;28;20032;-92
2023/07/29 09:52:44;;;;;;;3.45;2.30;;;21.10;99.90;;;;;;5058309;28;20037;-94
2023/07/29 09:55:13;;;;;;;3.97;2.50;;;21.10;99.90;;;;;;5058398;28;20118;-94
2023/07/29 09:57:40;;;;;;;4.80;2.60;;;21.10;99.90;;;;;;5058715;28;20023;-96
2023/07/29 10:00:11;;;;;;;4.95;2.80;;;21.10;99.90;;;;;;5058208;28;20017;-94
2023/07/29 10:02:43;;;;;;;5.30;2.67;;;21.10;99.90;;;;;;5042831;28;20374;-90
2023/07/29 10:05:09;;;;;;;4.15;2.53;;;21.20;99.90;;;;;;5058078;28;20024;-90
2023/07/29 10:07:39;;;;;;;5.22;2.92;;;21.20;99.90;;;;;;5057535;28;20086;-92
2023/07/29 10:10:07;;;;;;;5.40;2.65;;;21.30;99.90;;;;;;5054808;28;20028;-91
2023/07/29 10:12:34;;;;;;;3.17;2.50;;;21.30;99.90;;;;;;5059694;28;20539;-93
2023/07/29 10:15:05;;;;;;;4.60;2.40;;;21.40;99.90;;;;;;5061103;28;20054;-92
2023/07/29 10:17:34;;;;;;;3.28;2.10;;;21.50;99.90;;;;;;5060101;28;20063;-92
2023/07/29 10:20:00;;;;;;;4.78;2.42;;;21.50;99.90;;;;;;5058382;28;20021;-90
2023/07/29 10:22:38;;;;;;;3.72;2.20;;;21.60;99.90;;;;;;5057195;28;20142;-90
2023/07/29 10:25:07;;;;;;;4.10;2.00;;;21.70;99.90;;;;;;5057224;28;20097;-90
2023/07/29 10:28:01;;;;;;;4.40;2.42;;;21.80;99.90;;;;;;5057250;28;20044;-91
2023/07/29 10:30:28;;;;;;;4.07;2.53;;;21.80;99.90;;;;;;5054712;28;20492;-94
2023/07/29 10:33:13;;;;;;;5.82;2.85;;;21.80;99.90;;;;;;5057762;28;20032;-91
2023/07/29 10:35:54;;;;;;;4.07;2.85;;;21.80;99.90;;;;;;5057352;28;20446;-89
2023/07/29 10:38:23;;;;;;;5.85;3.13;;;21.80;99.90;;;;;;5028981;28;20089;-89
2023/07/29 10:40:56;;;;;;;4.57;2.67;;;21.90;99.90;;;;;;5061858;28;20100;-89
2023/07/29 10:43:39;;;;;;;3.67;2.63;;;21.90;99.90;;;;;;5057143;28;20040;-90
2023/07/29 10:46:21;;;;;;;4.95;3.25;;;21.90;99.90;;;;;;5055897;28;20567;-88
2023/07/29 10:48:50;;;;;;;6.82;3.70;;;22.00;99.90;;;;;;5053034;28;20033;-89
2023/07/29 10:51:36;;;;;;;6.55;3.15;;;22.00;99.90;;;;;;5060558;28;20111;-90
2023/07/29 10:54:14;;;;;;;5.40;3.08;;;22.00;99.90;;;;;;5062673;28;20082;-89
2023/07/29 10:56:47;;;;;;;7.43;3.08;;;22.00;99.90;;;;;;5064637;28;20062;-89
2023/07/29 10:59:14;;;;;;;5.85;2.72;;;22.00;99.90;;;;;;5051209;28;20029;-89
2023/07/29 11:01:51;;;;;;;7.88;3.13;;;22.00;99.90;;;;;;5057287;28;20060;-89
2023/07/29 11:04:29;;;;;;;4.72;2.80;;;22.10;99.90;;;;;;5050436;28;20032;-90
2023/07/29 11:07:04;;;;;;;3.88;2.30;;;22.10;99.90;;;;;;5052577;28;20059;-89
2023/07/29 11:09:51;;;;;;;3.90;2.17;;;22.10;99.90;;;;;;5060577;28;20032;-90
2023/07/29 11:12:42;;;;;;;5.00;2.20;;;22.20;99.90;;;;;;5064922;28;20036;-90
2023/07/29 11:15:34;;;;;;;;;;;;;;;;;;;;;
2023/07/29 11:18:03;;;;;;;3.55;2.05;;;22.30;99.90;;;;;;5080691;28;20024;-90
2023/07/29 11:20:30;;;;;;;3.80;1.90;;;22.30;99.90;;;;;;5063706;28;20036;-90
2023/07/29 11:23:03;;;;;;;3.00;1.80;;;22.30;99.90;;;;;;5065139;28;20103;-90
2023/07/29 11:25:38;;;;;;;3.97;1.85;;;22.30;99.90;;;;;;5070827;28;20035;-91
2023/07/29 11:28:04;;;;;;;2.55;1.83;;;22.40;99.90;;;;;;5058728;28;20341;-91
2023/07/29 11:30:30;;;;;;;2.75;1.55;;;22.40;99.90;;;;;;5040337;28;20033;-90
2023/07/29 11:32:58;;;;;;;2.78;1.90;;;22.40;99.90;;;;;;5040460;28;20059;-91
2023/07/29 11:35:24;;;;;;;8.85;2.45;;;22.40;99.90;;;;;;5040076;28;20020;-90
2023/07/29 11:37:51;;;;;;;4.72;1.92;;;22.40;99.90;;;;;;5051227;28;20019;-90
2023/07/29 11:40:18;;;;;;;3.08;2.00;;;22.40;99.90;;;;;;5060758;28;20174;-90
2023/07/29 11:42:50;;;;;;;3.53;1.90;;;22.40;99.90;;;;;;5061595;28;20108;-95
2023/07/29 11:45:16;;;;;;;5.10;2.17;;;22.40;99.90;;;;;;5063301;28;20020;-95
2023/07/29 11:47:42;;;;;;;5.75;1.90;;;22.40;99.90;;;;;;5061717;28;20028;-94
2023/07/29 11:50:15;;;;;;;4.10;2.20;;;22.40;99.90;;;;;;5062793;28;20119;-94
2023/07/29 11:52:42;;;;;;;4.93;2.25;;;22.40;99.90;;;;;;5060643;28;20031;-91
2023/07/29 11:55:08;;;;;;;6.85;2.20;;;22.40;99.90;;;;;;5059753;28;20021;-91
2023/07/29 11:57:36;;;;;;;4.63;2.67;;;22.40;99.90;;;;;;5060154;28;20036;-92
2023/07/29 12:00:07;;;;;;;3.50;2.30;;;22.30;99.90;;;;;;5067086;28;20029;-91
2023/07/29 12:02:39;;;;;;;2.90;1.70;;;22.20;99.90;;;;;;5061302;28;20055;-91
2023/07/29 12:05:12;;;;;;;4.07;1.60;;;22.10;99.90;;;;;;5053966;28;20029;-91
2023/07/29 12:07:44;;;;;;;4.85;1.90;;;22.00;99.90;;;;;;5052784;28;20051;-91
2023/07/29 12:10:10;;;;;;;3.58;1.35;;;21.80;99.90;;;;;;5057964;28;20045;-94
2023/07/29 12:12:47;;;;;;;5.03;1.60;;;21.70;99.90;;;;;;5059851;28;20052;-91
2023/07/29 12:15:15;;;;;;;4.45;1.90;;;21.60;99.90;;;;;;5052399;28;20025;-94
2023/07/29 12:24:30;;;;;;;4.75;2.13;;;21.30;99.90;;;;;;5058030;28;20089;-92
2023/07/29 12:30:33;;;;;;;3.90;1.92;;;21.20;99.90;;;;;;5061293;28;20031;-95
2023/07/29 12:33:32;;;;;;;5.63;1.80;;;21.10;99.90;;;;;;5048426;28;20059;-91
2023/07/29 12:36:27;;;;;;;4.57;1.52;;;21.00;99.90;;;;;;5044246;28;20369;-92
2023/07/29 12:38:53;;;;;;;5.68;1.63;;;20.90;99.90;;;;;;5035298;28;20033;-92
2023/07/29 12:41:18;;;;;;;4.10;1.60;;;20.90;99.90;;;;;;5018177;28;20087;-89
2023/07/29 12:44:25;;;;;;;6.90;2.08;;;20.80;99.90;;;;;;5034803;28;20038;-92
2023/07/29 12:46:57;;;;;;;3.78;2.10;;;20.80;99.90;;;;;;5019578;28;20037;-93
2023/07/29 12:49:29;;;;;;;5.07;2.38;;;20.80;99.90;;;;;;5018840;28;20029;-94
2023/07/29 12:52:04;;;;;;;4.68;2.08;;;20.80;99.90;;;;;;5018848;28;20433;-92
2023/07/29 12:58:37;;;;;;;6.10;2.03;;;20.80;99.90;;;;;;5034937;28;20425;-90
2023/07/29 13:01:05;;;;;;;4.70;2.70;;;20.80;99.90;;;;;;5034374;28;20107;-91
2023/07/29 13:03:37;;;;;;;5.03;2.83;;;20.70;99.90;;;;;;5045086;28;20037;-90
2023/07/29 13:06:52;;;;;;;;;;;;;;;;;;;;;